sensor_id;sensor_type;location;lat;lon;timestamp;temperature;humidity
66119;DHT22;52912;48.564;9.302;2023-09-07T00:00:39;16.61;86.40
66119;DHT22;52912;48.564;9.302;2023-09-07T00:03:04;16.58;86.42
66119;DHT22;52912;48.564;9.302;2023-09-07T00:05:31;16.50;86.55
66119;DHT22;52912;48.564;9.302;2023-09-07T00:07:56;16.34;86.94
66119;DHT22;52912;48.564;9.302;2023-09-07T00:10:22;16.37;87.08
66119;DHT22;52912;48.564;9.302;2023-09-07T00:12:48;16.17;87.70
66119;DHT22;52912;48.564;9.302;2023-09-07T00:15:13;16.30;87.43
66119;DHT22;52912;48.564;9.302;2023-09-07T00:17:38;16.40;86.77
66119;DHT22;52912;48.564;9.302;2023-09-07T00:20:06;16.19;87.56
66119;DHT22;52912;48.564;9.302;2023-09-07T00:22:33;16.27;86.97
66119;DHT22;52912;48.564;9.302;2023-09-07T00:24:58;16.16;87.39
66119;DHT22;52912;48.564;9.302;2023-09-07T00:27:23;16.13;87.60
66119;DHT22;52912;48.564;9.302;2023-09-07T00:29:49;16.09;87.49
66119;DHT22;52912;48.564;9.302;2023-09-07T00:32:14;15.95;87.75
66119;DHT22;52912;48.564;9.302;2023-09-07T00:34:40;15.98;87.76
66119;DHT22;52912;48.564;9.302;2023-09-07T00:37:05;15.89;87.96
66119;DHT22;52912;48.564;9.302;2023-09-07T00:39:32;15.88;88.18
66119;DHT22;52912;48.564;9.302;2023-09-07T00:41:57;15.72;88.71
66119;DHT22;52912;48.564;9.302;2023-09-07T00:44:23;15.68;88.57
66119;DHT22;52912;48.564;9.302;2023-09-07T00:46:48;15.68;88.75
66119;DHT22;52912;48.564;9.302;2023-09-07T00:49:14;15.58;88.94
66119;DHT22;52912;48.564;9.302;2023-09-07T00:51:39;15.67;88.80
66119;DHT22;52912;48.564;9.302;2023-09-07T00:54:05;15.64;88.79
66119;DHT22;52912;48.564;9.302;2023-09-07T00:56:32;15.55;88.87
66119;DHT22;52912;48.564;9.302;2023-09-07T00:58:58;15.60;88.87
66119;DHT22;52912;48.564;9.302;2023-09-07T01:01:23;15.62;88.75
66119;DHT22;52912;48.564;9.302;2023-09-07T01:03:49;15.62;88.65
66119;DHT22;52912;48.564;9.302;2023-09-07T01:06:17;15.62;88.77
66119;DHT22;52912;48.564;9.302;2023-09-07T01:08:46;15.61;88.85
66119;DHT22;52912;48.564;9.302;2023-09-07T01:11:15;15.61;88.72
66119;DHT22;52912;48.564;9.302;2023-09-07T01:13:42;15.50;89.19
66119;DHT22;52912;48.564;9.302;2023-09-07T01:16:09;15.46;89.46
66119;DHT22;52912;48.564;9.302;2023-09-07T01:18:35;15.37;89.31
66119;DHT22;52912;48.564;9.302;2023-09-07T01:21:01;15.42;89.22
66119;DHT22;52912;48.564;9.302;2023-09-07T01:23:29;15.42;88.83
66119;DHT22;52912;48.564;9.302;2023-09-07T01:25:55;15.25;90.06
66119;DHT22;52912;48.564;9.302;2023-09-07T01:28:21;15.36;89.48
66119;DHT22;52912;48.564;9.302;2023-09-07T01:30:46;15.32;89.64
66119;DHT22;52912;48.564;9.302;2023-09-07T01:33:12;15.27;89.99
66119;DHT22;52912;48.564;9.302;2023-09-07T01:35:38;15.32;89.73
66119;DHT22;52912;48.564;9.302;2023-09-07T01:38:04;15.34;89.90
66119;DHT22;52912;48.564;9.302;2023-09-07T01:40:31;15.39;89.36
66119;DHT22;52912;48.564;9.302;2023-09-07T01:42:57;15.18;90.10
66119;DHT22;52912;48.564;9.302;2023-09-07T01:45:22;15.15;90.19
66119;DHT22;52912;48.564;9.302;2023-09-07T01:47:48;15.15;90.16
66119;DHT22;52912;48.564;9.302;2023-09-07T01:50:13;15.12;90.29
66119;DHT22;52912;48.564;9.302;2023-09-07T01:52:38;15.18;90.14
66119;DHT22;52912;48.564;9.302;2023-09-07T01:55:04;15.19;89.91
66119;DHT22;52912;48.564;9.302;2023-09-07T01:57:31;15.18;89.70
66119;DHT22;52912;48.564;9.302;2023-09-07T01:59:58;15.06;89.94
66119;DHT22;52912;48.564;9.302;2023-09-07T02:02:23;14.98;90.13
66119;DHT22;52912;48.564;9.302;2023-09-07T02:04:49;15.09;89.60
66119;DHT22;52912;48.564;9.302;2023-09-07T02:07:14;15.03;89.64
66119;DHT22;52912;48.564;9.302;2023-09-07T02:09:40;15.15;89.32
66119;DHT22;52912;48.564;9.302;2023-09-07T02:12:06;15.10;89.31
66119;DHT22;52912;48.564;9.302;2023-09-07T02:14:32;14.89;90.04
66119;DHT22;52912;48.564;9.302;2023-09-07T02:16:58;14.80;90.63
66119;DHT22;52912;48.564;9.302;2023-09-07T02:19:23;14.93;90.07
66119;DHT22;52912;48.564;9.302;2023-09-07T02:21:49;14.92;90.13
66119;DHT22;52912;48.564;9.302;2023-09-07T02:24:14;14.96;90.02
66119;DHT22;52912;48.564;9.302;2023-09-07T02:26:40;15.00;90.00
66119;DHT22;52912;48.564;9.302;2023-09-07T02:29:05;14.92;90.13
66119;DHT22;52912;48.564;9.302;2023-09-07T02:31:32;14.92;89.86
66119;DHT22;52912;48.564;9.302;2023-09-07T02:33:57;14.84;90.25
66119;DHT22;52912;48.564;9.302;2023-09-07T02:36:23;14.78;90.26
66119;DHT22;52912;48.564;9.302;2023-09-07T02:38:48;14.82;90.45
66119;DHT22;52912;48.564;9.302;2023-09-07T02:41:14;14.82;90.26
66119;DHT22;52912;48.564;9.302;2023-09-07T02:43:39;14.82;89.90
66119;DHT22;52912;48.564;9.302;2023-09-07T02:46:04;14.84;89.93
66119;DHT22;52912;48.564;9.302;2023-09-07T02:48:31;14.70;89.95
66119;DHT22;52912;48.564;9.302;2023-09-07T02:50:57;14.67;90.02
66119;DHT22;52912;48.564;9.302;2023-09-07T02:53:22;14.75;89.78
66119;DHT22;52912;48.564;9.302;2023-09-07T02:55:48;14.68;90.14
66119;DHT22;52912;48.564;9.302;2023-09-07T02:58:13;14.63;90.19
66119;DHT22;52912;48.564;9.302;2023-09-07T03:00:41;14.65;90.58
66119;DHT22;52912;48.564;9.302;2023-09-07T03:03:07;14.48;90.92
66119;DHT22;52912;48.564;9.302;2023-09-07T03:05:33;14.40;90.88
66119;DHT22;52912;48.564;9.302;2023-09-07T03:07:59;14.44;91.18
66119;DHT22;52912;48.564;9.302;2023-09-07T03:10:24;14.46;91.05
66119;DHT22;52912;48.564;9.302;2023-09-07T03:12:50;14.48;91.18
66119;DHT22;52912;48.564;9.302;2023-09-07T03:15:15;14.53;91.31
66119;DHT22;52912;48.564;9.302;2023-09-07T03:17:41;14.50;91.25
66119;DHT22;52912;48.564;9.302;2023-09-07T03:20:07;14.47;90.98
66119;DHT22;52912;48.564;9.302;2023-09-07T03:22:34;14.54;90.82
66119;DHT22;52912;48.564;9.302;2023-09-07T03:24:59;14.43;90.60
66119;DHT22;52912;48.564;9.302;2023-09-07T03:27:25;14.44;90.65
66119;DHT22;52912;48.564;9.302;2023-09-07T03:29:50;14.44;90.65
66119;DHT22;52912;48.564;9.302;2023-09-07T03:32:16;14.43;90.44
66119;DHT22;52912;48.564;9.302;2023-09-07T03:34:41;14.34;90.71
66119;DHT22;52912;48.564;9.302;2023-09-07T03:37:07;14.29;91.01
66119;DHT22;52912;48.564;9.302;2023-09-07T03:39:33;14.32;90.87
66119;DHT22;52912;48.564;9.302;2023-09-07T03:41:59;14.25;91.21
66119;DHT22;52912;48.564;9.302;2023-09-07T03:44:24;14.30;91.05
66119;DHT22;52912;48.564;9.302;2023-09-07T03:46:50;14.20;91.10
66119;DHT22;52912;48.564;9.302;2023-09-07T03:49:15;14.18;91.28
66119;DHT22;52912;48.564;9.302;2023-09-07T03:51:41;14.12;91.67
66119;DHT22;52912;48.564;9.302;2023-09-07T03:54:06;14.09;91.65
66119;DHT22;52912;48.564;9.302;2023-09-07T03:56:33;14.23;91.28
66119;DHT22;52912;48.564;9.302;2023-09-07T03:58:58;14.29;90.74
66119;DHT22;52912;48.564;9.302;2023-09-07T04:01:24;14.23;91.11
66119;DHT22;52912;48.564;9.302;2023-09-07T04:03:49;14.06;92.21
66119;DHT22;52912;48.564;9.302;2023-09-07T04:06:14;13.99;91.80
66119;DHT22;52912;48.564;9.302;2023-09-07T04:08:40;13.94;91.94
66119;DHT22;52912;48.564;9.302;2023-09-07T04:11:05;13.98;92.04
66119;DHT22;52912;48.564;9.302;2023-09-07T04:13:32;13.89;92.44
66119;DHT22;52912;48.564;9.302;2023-09-07T04:15:58;13.88;92.39
66119;DHT22;52912;48.564;9.302;2023-09-07T04:18:23;13.92;92.15
66119;DHT22;52912;48.564;9.302;2023-09-07T04:20:49;13.85;92.48
66119;DHT22;52912;48.564;9.302;2023-09-07T04:23:15;13.95;92.04
66119;DHT22;52912;48.564;9.302;2023-09-07T04:25:40;13.91;91.76
66119;DHT22;52912;48.564;9.302;2023-09-07T04:28:06;13.97;91.73
66119;DHT22;52912;48.564;9.302;2023-09-07T04:30:36;13.97;91.42
66119;DHT22;52912;48.564;9.302;2023-09-07T04:33:02;13.79;91.92
66119;DHT22;52912;48.564;9.302;2023-09-07T04:35:28;13.67;92.51
66119;DHT22;52912;48.564;9.302;2023-09-07T04:37:54;13.67;92.52
66119;DHT22;52912;48.564;9.302;2023-09-07T04:40:20;13.63;92.91
66119;DHT22;52912;48.564;9.302;2023-09-07T04:42:45;13.67;93.03
66119;DHT22;52912;48.564;9.302;2023-09-07T04:45:10;13.77;92.49
66119;DHT22;52912;48.564;9.302;2023-09-07T04:47:37;13.75;92.48
66119;DHT22;52912;48.564;9.302;2023-09-07T04:50:03;13.67;93.02
66119;DHT22;52912;48.564;9.302;2023-09-07T04:52:29;13.39;93.84
66119;DHT22;52912;48.564;9.302;2023-09-07T04:54:54;13.44;93.36
66119;DHT22;52912;48.564;9.302;2023-09-07T04:57:20;13.46;93.31
66119;DHT22;52912;48.564;9.302;2023-09-07T04:59:45;13.46;93.12
66119;DHT22;52912;48.564;9.302;2023-09-07T05:02:11;13.46;93.40
66119;DHT22;52912;48.564;9.302;2023-09-07T05:04:37;13.46;93.67
66119;DHT22;52912;48.564;9.302;2023-09-07T05:07:03;13.44;93.62
66119;DHT22;52912;48.564;9.302;2023-09-07T05:09:29;13.43;93.84
66119;DHT22;52912;48.564;9.302;2023-09-07T05:11:54;13.46;94.28
66119;DHT22;52912;48.564;9.302;2023-09-07T05:14:20;13.43;94.25
66119;DHT22;52912;48.564;9.302;2023-09-07T05:16:45;13.54;93.91
66119;DHT22;52912;48.564;9.302;2023-09-07T05:19:11;13.50;94.06
66119;DHT22;52912;48.564;9.302;2023-09-07T05:21:38;13.67;93.53
66119;DHT22;52912;48.564;9.302;2023-09-07T05:24:03;13.67;93.47
66119;DHT22;52912;48.564;9.302;2023-09-07T05:26:29;13.84;93.03
66119;DHT22;52912;48.564;9.302;2023-09-07T05:28:54;13.99;92.75
66119;DHT22;52912;48.564;9.302;2023-09-07T05:31:20;14.05;92.58
66119;DHT22;52912;48.564;9.302;2023-09-07T05:33:45;14.23;91.87
66119;DHT22;52912;48.564;9.302;2023-09-07T05:36:11;14.20;91.62
66119;DHT22;52912;48.564;9.302;2023-09-07T05:38:37;14.16;92.35
66119;DHT22;52912;48.564;9.302;2023-09-07T05:41:03;14.04;92.83
66119;DHT22;52912;48.564;9.302;2023-09-07T05:43:28;14.20;92.43
66119;DHT22;52912;48.564;9.302;2023-09-07T05:45:54;14.27;92.37
66119;DHT22;52912;48.564;9.302;2023-09-07T05:48:19;14.30;92.34
66119;DHT22;52912;48.564;9.302;2023-09-07T05:50:45;14.32;92.50
66119;DHT22;52912;48.564;9.302;2023-09-07T05:53:11;14.36;92.65
66119;DHT22;52912;48.564;9.302;2023-09-07T05:55:38;14.44;92.92
66119;DHT22;52912;48.564;9.302;2023-09-07T05:58:05;14.38;93.40
66119;DHT22;52912;48.564;9.302;2023-09-07T06:00:31;14.23;94.18
66119;DHT22;52912;48.564;9.302;2023-09-07T06:02:56;14.25;94.37
66119;DHT22;52912;48.564;9.302;2023-09-07T06:05:22;14.41;93.75
66119;DHT22;52912;48.564;9.302;2023-09-07T06:07:48;14.41;93.72
66119;DHT22;52912;48.564;9.302;2023-09-07T06:10:13;14.46;93.73
66119;DHT22;52912;48.564;9.302;2023-09-07T06:12:40;14.46;93.81
66119;DHT22;52912;48.564;9.302;2023-09-07T06:15:07;14.61;93.52
66119;DHT22;52912;48.564;9.302;2023-09-07T06:17:33;14.71;93.44
66119;DHT22;52912;48.564;9.302;2023-09-07T06:19:58;14.80;92.73
66119;DHT22;52912;48.564;9.302;2023-09-07T06:22:24;14.77;93.30
66119;DHT22;52912;48.564;9.302;2023-09-07T06:24:49;14.89;93.24
66119;DHT22;52912;48.564;9.302;2023-09-07T06:27:15;14.93;93.47
66119;DHT22;52912;48.564;9.302;2023-09-07T06:29:42;14.92;93.14
66119;DHT22;52912;48.564;9.302;2023-09-07T06:32:07;14.92;92.93
66119;DHT22;52912;48.564;9.302;2023-09-07T06:34:33;15.06;92.39
66119;DHT22;52912;48.564;9.302;2023-09-07T06:36:58;15.29;91.77
66119;DHT22;52912;48.564;9.302;2023-09-07T06:39:24;15.40;91.92
66119;DHT22;52912;48.564;9.302;2023-09-07T06:41:49;15.49;91.16
66119;DHT22;52912;48.564;9.302;2023-09-07T06:44:15;15.77;90.58
66119;DHT22;52912;48.564;9.302;2023-09-07T06:46:41;15.91;89.89
66119;DHT22;52912;48.564;9.302;2023-09-07T06:49:07;15.98;89.61
66119;DHT22;52912;48.564;9.302;2023-09-07T06:51:32;16.17;89.40
66119;DHT22;52912;48.564;9.302;2023-09-07T06:53:58;16.20;89.28
66119;DHT22;52912;48.564;9.302;2023-09-07T06:56:23;16.37;89.18
66119;DHT22;52912;48.564;9.302;2023-09-07T06:58:49;16.41;89.10
66119;DHT22;52912;48.564;9.302;2023-09-07T07:01:15;16.61;88.58
66119;DHT22;52912;48.564;9.302;2023-09-07T07:03:41;16.65;89.48
66119;DHT22;52912;48.564;9.302;2023-09-07T07:06:07;16.82;89.50
66119;DHT22;52912;48.564;9.302;2023-09-07T07:08:33;16.88;89.40
66119;DHT22;52912;48.564;9.302;2023-09-07T07:10:58;16.89;88.76
66119;DHT22;52912;48.564;9.302;2023-09-07T07:13:24;17.03;89.13
66119;DHT22;52912;48.564;9.302;2023-09-07T07:15:49;17.18;89.09
66119;DHT22;52912;48.564;9.302;2023-09-07T07:18:15;17.30;89.24
66119;DHT22;52912;48.564;9.302;2023-09-07T07:20:42;17.47;87.96
66119;DHT22;52912;48.564;9.302;2023-09-07T07:23:08;17.44;87.35
66119;DHT22;52912;48.564;9.302;2023-09-07T07:25:33;17.70;87.54
66119;DHT22;52912;48.564;9.302;2023-09-07T07:27:59;17.86;87.11
66119;DHT22;52912;48.564;9.302;2023-09-07T07:30:26;17.96;87.23
66119;DHT22;52912;48.564;9.302;2023-09-07T07:32:52;18.06;86.92
66119;DHT22;52912;48.564;9.302;2023-09-07T07:35:18;18.32;86.59
66119;DHT22;52912;48.564;9.302;2023-09-07T07:37:44;18.61;85.52
66119;DHT22;52912;48.564;9.302;2023-09-07T07:40:11;18.58;85.20
66119;DHT22;52912;48.564;9.302;2023-09-07T07:42:36;18.94;84.65
66119;DHT22;52912;48.564;9.302;2023-09-07T07:45:02;19.16;83.52
66119;DHT22;52912;48.564;9.302;2023-09-07T07:47:27;19.33;82.59
66119;DHT22;52912;48.564;9.302;2023-09-07T07:49:52;19.51;82.80
66119;DHT22;52912;48.564;9.302;2023-09-07T07:52:18;19.63;82.17
66119;DHT22;52912;48.564;9.302;2023-09-07T07:54:45;19.85;82.12
66119;DHT22;52912;48.564;9.302;2023-09-07T07:57:10;20.08;82.20
66119;DHT22;52912;48.564;9.302;2023-09-07T07:59:36;20.25;81.97
66119;DHT22;52912;48.564;9.302;2023-09-07T08:02:01;20.45;81.55
66119;DHT22;52912;48.564;9.302;2023-09-07T08:04:27;20.51;81.43
66119;DHT22;52912;48.564;9.302;2023-09-07T08:06:52;20.77;80.59
66119;DHT22;52912;48.564;9.302;2023-09-07T08:09:17;20.99;80.20
66119;DHT22;52912;48.564;9.302;2023-09-07T08:11:44;21.15;80.93
66119;DHT22;52912;48.564;9.302;2023-09-07T08:14:10;21.39;80.16
66119;DHT22;52912;48.564;9.302;2023-09-07T08:16:35;21.67;79.31
66119;DHT22;52912;48.564;9.302;2023-09-07T08:19:01;21.98;78.13
66119;DHT22;52912;48.564;9.302;2023-09-07T08:21:26;22.03;77.88
66119;DHT22;52912;48.564;9.302;2023-09-07T08:23:51;22.33;77.26
66119;DHT22;52912;48.564;9.302;2023-09-07T08:26:17;22.57;76.28
66119;DHT22;52912;48.564;9.302;2023-09-07T08:28:44;22.29;76.91
66119;DHT22;52912;48.564;9.302;2023-09-07T08:31:09;22.69;73.66
66119;DHT22;52912;48.564;9.302;2023-09-07T08:33:35;22.69;74.36
66119;DHT22;52912;48.564;9.302;2023-09-07T08:36:00;22.68;74.53
66119;DHT22;52912;48.564;9.302;2023-09-07T08:38:26;22.20;75.31
66119;DHT22;52912;48.564;9.302;2023-09-07T08:40:51;22.72;73.97
66119;DHT22;52912;48.564;9.302;2023-09-07T08:43:19;22.85;73.78
66119;DHT22;52912;48.564;9.302;2023-09-07T08:45:50;23.26;72.98
66119;DHT22;52912;48.564;9.302;2023-09-07T08:48:16;23.30;71.93
66119;DHT22;52912;48.564;9.302;2023-09-07T08:50:42;23.29;72.82
66119;DHT22;52912;48.564;9.302;2023-09-07T08:53:08;23.54;72.86
66119;DHT22;52912;48.564;9.302;2023-09-07T08:55:34;23.71;72.68
66119;DHT22;52912;48.564;9.302;2023-09-07T08:57:59;23.99;72.36
66119;DHT22;52912;48.564;9.302;2023-09-07T09:00:24;23.97;71.94
66119;DHT22;52912;48.564;9.302;2023-09-07T09:02:52;24.16;72.42
66119;DHT22;52912;48.564;9.302;2023-09-07T09:05:19;24.53;72.05
66119;DHT22;52912;48.564;9.302;2023-09-07T09:07:44;24.63;70.90
66119;DHT22;52912;48.564;9.302;2023-09-07T09:10:10;24.36;71.42
66119;DHT22;52912;48.564;9.302;2023-09-07T09:12:36;24.26;72.90
66119;DHT22;52912;48.564;9.302;2023-09-07T09:15:09;24.77;71.30
66119;DHT22;52912;48.564;9.302;2023-09-07T09:17:35;24.30;71.45
66119;DHT22;52912;48.564;9.302;2023-09-07T09:20:02;24.47;71.07
66119;DHT22;52912;48.564;9.302;2023-09-07T09:22:28;24.84;71.24
66119;DHT22;52912;48.564;9.302;2023-09-07T09:24:53;25.09;70.45
66119;DHT22;52912;48.564;9.302;2023-09-07T09:27:20;24.88;70.75
66119;DHT22;52912;48.564;9.302;2023-09-07T09:29:45;25.16;69.73
66119;DHT22;52912;48.564;9.302;2023-09-07T09:32:13;25.47;69.66
66119;DHT22;52912;48.564;9.302;2023-09-07T09:34:39;25.94;68.59
66119;DHT22;52912;48.564;9.302;2023-09-07T09:37:12;25.80;69.40
66119;DHT22;52912;48.564;9.302;2023-09-07T09:39:39;25.77;69.67
66119;DHT22;52912;48.564;9.302;2023-09-07T09:42:04;25.42;68.93
66119;DHT22;52912;48.564;9.302;2023-09-07T09:44:30;26.08;68.41
66119;DHT22;52912;48.564;9.302;2023-09-07T09:46:56;26.44;67.75
66119;DHT22;52912;48.564;9.302;2023-09-07T09:49:22;26.37;67.47
66119;DHT22;52912;48.564;9.302;2023-09-07T09:51:49;26.36;68.08
66119;DHT22;52912;48.564;9.302;2023-09-07T09:54:16;26.87;67.06
66119;DHT22;52912;48.564;9.302;2023-09-07T09:56:42;27.23;65.97
66119;DHT22;52912;48.564;9.302;2023-09-07T09:59:07;27.36;65.68
66119;DHT22;52912;48.564;9.302;2023-09-07T10:01:38;27.32;65.43
66119;DHT22;52912;48.564;9.302;2023-09-07T10:04:06;27.60;65.60
66119;DHT22;52912;48.564;9.302;2023-09-07T10:06:33;27.68;65.16
66119;DHT22;52912;48.564;9.302;2023-09-07T10:08:59;27.46;65.67
66119;DHT22;52912;48.564;9.302;2023-09-07T10:11:29;27.63;65.64
66119;DHT22;52912;48.564;9.302;2023-09-07T10:13:59;27.70;65.73
66119;DHT22;52912;48.564;9.302;2023-09-07T10:16:24;27.99;65.43
66119;DHT22;52912;48.564;9.302;2023-09-07T10:18:50;28.06;65.37
66119;DHT22;52912;48.564;9.302;2023-09-07T10:21:15;27.88;65.51
66119;DHT22;52912;48.564;9.302;2023-09-07T10:23:42;28.42;63.95
66119;DHT22;52912;48.564;9.302;2023-09-07T10:26:11;27.98;64.49
66119;DHT22;52912;48.564;9.302;2023-09-07T10:28:38;27.42;65.81
66119;DHT22;52912;48.564;9.302;2023-09-07T10:31:06;27.70;65.87
66119;DHT22;52912;48.564;9.302;2023-09-07T10:33:32;28.35;64.88
66119;DHT22;52912;48.564;9.302;2023-09-07T10:35:57;27.06;66.31
66119;DHT22;52912;48.564;9.302;2023-09-07T10:38:23;27.88;65.45
66119;DHT22;52912;48.564;9.302;2023-09-07T10:40:54;28.08;65.36
66119;DHT22;52912;48.564;9.302;2023-09-07T10:43:20;28.12;65.66
66119;DHT22;52912;48.564;9.302;2023-09-07T10:45:47;27.99;66.14
66119;DHT22;52912;48.564;9.302;2023-09-07T10:48:13;28.63;65.40
66119;DHT22;52912;48.564;9.302;2023-09-07T10:50:44;27.84;66.06
66119;DHT22;52912;48.564;9.302;2023-09-07T10:53:13;28.32;65.58
66119;DHT22;52912;48.564;9.302;2023-09-07T10:55:40;27.73;65.58
66119;DHT22;52912;48.564;9.302;2023-09-07T10:58:05;27.98;65.41
66119;DHT22;52912;48.564;9.302;2023-09-07T11:00:31;28.04;66.11
66119;DHT22;52912;48.564;9.302;2023-09-07T11:02:58;28.47;64.66
66119;DHT22;52912;48.564;9.302;2023-09-07T11:05:23;28.37;65.17
66119;DHT22;52912;48.564;9.302;2023-09-07T11:07:49;29.04;64.48
66119;DHT22;52912;48.564;9.302;2023-09-07T11:10:14;28.97;64.11
66119;DHT22;52912;48.564;9.302;2023-09-07T11:12:40;28.52;64.63
66119;DHT22;52912;48.564;9.302;2023-09-07T11:15:08;29.20;63.57
66119;DHT22;52912;48.564;9.302;2023-09-07T11:17:36;29.04;63.86
66119;DHT22;52912;48.564;9.302;2023-09-07T11:20:06;29.81;62.84
66119;DHT22;52912;48.564;9.302;2023-09-07T11:22:32;29.18;63.80
66119;DHT22;52912;48.564;9.302;2023-09-07T11:24:59;29.12;64.15
66119;DHT22;52912;48.564;9.302;2023-09-07T11:27:25;29.74;63.63
66119;DHT22;52912;48.564;9.302;2023-09-07T11:29:51;29.30;63.93
66119;DHT22;52912;48.564;9.302;2023-09-07T11:32:17;28.31;64.91
66119;DHT22;52912;48.564;9.302;2023-09-07T11:34:49;29.51;63.48
66119;DHT22;52912;48.564;9.302;2023-09-07T11:37:16;29.25;64.25
66119;DHT22;52912;48.564;9.302;2023-09-07T11:39:42;29.71;63.39
66119;DHT22;52912;48.564;9.302;2023-09-07T11:42:07;30.02;62.69
66119;DHT22;52912;48.564;9.302;2023-09-07T11:44:33;29.98;62.05
66119;DHT22;52912;48.564;9.302;2023-09-07T11:46:58;29.89;61.81
66119;DHT22;52912;48.564;9.302;2023-09-07T11:49:24;29.92;62.29
66119;DHT22;52912;48.564;9.302;2023-09-07T11:51:49;29.61;63.55
66119;DHT22;52912;48.564;9.302;2023-09-07T11:54:16;30.08;62.00
66119;DHT22;52912;48.564;9.302;2023-09-07T11:56:41;30.25;62.21
66119;DHT22;52912;48.564;9.302;2023-09-07T11:59:07;29.80;62.71
66119;DHT22;52912;48.564;9.302;2023-09-07T12:01:32;30.12;63.21
66119;DHT22;52912;48.564;9.302;2023-09-07T12:03:58;29.98;62.22
66119;DHT22;52912;48.564;9.302;2023-09-07T12:06:23;30.96;61.21
66119;DHT22;52912;48.564;9.302;2023-09-07T12:08:58;30.75;61.55
66119;DHT22;52912;48.564;9.302;2023-09-07T12:11:25;30.41;61.07
66119;DHT22;52912;48.564;9.302;2023-09-07T12:13:51;30.00;62.07
66119;DHT22;52912;48.564;9.302;2023-09-07T12:16:16;31.14;60.64
66119;DHT22;52912;48.564;9.302;2023-09-07T12:18:41;31.95;58.71
66119;DHT22;52912;48.564;9.302;2023-09-07T12:21:07;31.76;59.04
66119;DHT22;52912;48.564;9.302;2023-09-07T12:23:32;31.46;59.52
66119;DHT22;52912;48.564;9.302;2023-09-07T12:25:58;31.59;59.34
66119;DHT22;52912;48.564;9.302;2023-09-07T12:28:25;31.73;59.44
66119;DHT22;52912;48.564;9.302;2023-09-07T12:30:51;31.08;59.61
66119;DHT22;52912;48.564;9.302;2023-09-07T12:33:22;31.01;59.24
66119;DHT22;52912;48.564;9.302;2023-09-07T12:35:47;32.15;59.08
66119;DHT22;52912;48.564;9.302;2023-09-07T12:38:13;31.49;59.72
66119;DHT22;52912;48.564;9.302;2023-09-07T12:40:38;30.87;60.05
66119;DHT22;52912;48.564;9.302;2023-09-07T12:43:04;31.91;58.36
66119;DHT22;52912;48.564;9.302;2023-09-07T12:45:30;31.87;58.40
66119;DHT22;52912;48.564;9.302;2023-09-07T12:47:56;32.00;58.33
66119;DHT22;52912;48.564;9.302;2023-09-07T12:50:21;32.73;56.60
66119;DHT22;52912;48.564;9.302;2023-09-07T12:52:47;32.52;57.17
66119;DHT22;52912;48.564;9.302;2023-09-07T12:55:12;32.18;58.02
66119;DHT22;52912;48.564;9.302;2023-09-07T12:57:38;31.81;58.54
66119;DHT22;52912;48.564;9.302;2023-09-07T13:00:04;31.90;58.40
66119;DHT22;52912;48.564;9.302;2023-09-07T13:02:31;32.39;57.84
66119;DHT22;52912;48.564;9.302;2023-09-07T13:04:57;31.81;58.14
66119;DHT22;52912;48.564;9.302;2023-09-07T13:07:22;31.69;58.40
66119;DHT22;52912;48.564;9.302;2023-09-07T13:09:48;32.66;57.33
66119;DHT22;52912;48.564;9.302;2023-09-07T13:12:13;32.79;56.62
66119;DHT22;52912;48.564;9.302;2023-09-07T13:14:39;32.59;56.70
66119;DHT22;52912;48.564;9.302;2023-09-07T13:17:04;33.32;55.79
66119;DHT22;52912;48.564;9.302;2023-09-07T13:19:31;33.92;54.20
66119;DHT22;52912;48.564;9.302;2023-09-07T13:21:56;33.49;54.52
66119;DHT22;52912;48.564;9.302;2023-09-07T13:24:22;34.01;53.88
66119;DHT22;52912;48.564;9.302;2023-09-07T13:26:47;33.55;54.29
66119;DHT22;52912;48.564;9.302;2023-09-07T13:29:13;33.59;54.43
66119;DHT22;52912;48.564;9.302;2023-09-07T13:31:38;33.90;54.06
66119;DHT22;52912;48.564;9.302;2023-09-07T13:34:04;33.69;53.90
66119;DHT22;52912;48.564;9.302;2023-09-07T13:36:30;33.73;54.15
66119;DHT22;52912;48.564;9.302;2023-09-07T13:38:56;33.00;54.37
66119;DHT22;52912;48.564;9.302;2023-09-07T13:41:21;32.48;55.15
66119;DHT22;52912;48.564;9.302;2023-09-07T13:43:47;33.28;53.88
66119;DHT22;52912;48.564;9.302;2023-09-07T13:46:12;32.77;54.27
66119;DHT22;52912;48.564;9.302;2023-09-07T13:48:38;33.87;53.19
66119;DHT22;52912;48.564;9.302;2023-09-07T13:51:03;33.72;53.33
66119;DHT22;52912;48.564;9.302;2023-09-07T13:53:30;33.26;53.82
66119;DHT22;52912;48.564;9.302;2023-09-07T13:55:55;33.77;53.01
66119;DHT22;52912;48.564;9.302;2023-09-07T13:58:21;33.21;53.98
66119;DHT22;52912;48.564;9.302;2023-09-07T14:00:46;34.25;52.04
66119;DHT22;52912;48.564;9.302;2023-09-07T14:03:12;33.36;53.61
66119;DHT22;52912;48.564;9.302;2023-09-07T14:05:37;33.41;53.42
66119;DHT22;52912;48.564;9.302;2023-09-07T14:08:03;33.10;53.77
66119;DHT22;52912;48.564;9.302;2023-09-07T14:10:30;33.73;53.31
66119;DHT22;52912;48.564;9.302;2023-09-07T14:12:56;33.55;53.57
66119;DHT22;52912;48.564;9.302;2023-09-07T14:15:21;34.12;52.49
66119;DHT22;52912;48.564;9.302;2023-09-07T14:17:46;33.65;53.37
66119;DHT22;52912;48.564;9.302;2023-09-07T14:20:12;32.62;53.66
66119;DHT22;52912;48.564;9.302;2023-09-07T14:22:37;33.22;53.93
66119;DHT22;52912;48.564;9.302;2023-09-07T14:25:03;33.07;53.72
66119;DHT22;52912;48.564;9.302;2023-09-07T14:27:30;33.18;53.40
66119;DHT22;52912;48.564;9.302;2023-09-07T14:29:56;32.70;54.04
66119;DHT22;52912;48.564;9.302;2023-09-07T14:32:21;33.10;53.65
66119;DHT22;52912;48.564;9.302;2023-09-07T14:34:46;32.73;54.43
66119;DHT22;52912;48.564;9.302;2023-09-07T14:37:12;32.97;53.83
66119;DHT22;52912;48.564;9.302;2023-09-07T14:39:37;33.14;53.08
66119;DHT22;52912;48.564;9.302;2023-09-07T14:42:03;33.22;53.45
66119;DHT22;52912;48.564;9.302;2023-09-07T14:44:30;33.73;52.74
66119;DHT22;52912;48.564;9.302;2023-09-07T14:46:55;32.67;54.86
66119;DHT22;52912;48.564;9.302;2023-09-07T14:49:21;32.69;54.26
66119;DHT22;52912;48.564;9.302;2023-09-07T14:51:46;32.76;54.74
66119;DHT22;52912;48.564;9.302;2023-09-07T14:54:12;33.18;53.86
66119;DHT22;52912;48.564;9.302;2023-09-07T14:56:37;34.05;52.77
66119;DHT22;52912;48.564;9.302;2023-09-07T14:59:03;33.94;52.59
66119;DHT22;52912;48.564;9.302;2023-09-07T15:01:30;33.81;52.44
66119;DHT22;52912;48.564;9.302;2023-09-07T15:03:55;33.52;52.95
66119;DHT22;52912;48.564;9.302;2023-09-07T15:06:20;33.62;53.20
66119;DHT22;52912;48.564;9.302;2023-09-07T15:08:46;32.87;53.89
66119;DHT22;52912;48.564;9.302;2023-09-07T15:11:11;32.86;54.28
66119;DHT22;52912;48.564;9.302;2023-09-07T15:13:37;33.35;53.50
66119;DHT22;52912;48.564;9.302;2023-09-07T15:16:03;33.41;53.84
66119;DHT22;52912;48.564;9.302;2023-09-07T15:18:30;32.77;54.47
66119;DHT22;52912;48.564;9.302;2023-09-07T15:20:55;32.35;55.31